createdAt,value
2023-02-07T00:00:50.029Z,28.30
2023-02-07T00:03:16.786Z,24.75
2023-02-07T00:05:43.471Z,23.63
2023-02-07T00:08:10.229Z,27.48
2023-02-07T00:10:36.902Z,27.67
2023-02-07T00:13:06.243Z,23.45
2023-02-07T00:15:33.057Z,30.42
2023-02-07T00:17:59.804Z,27.60
2023-02-07T00:20:26.483Z,29.27
2023-02-07T00:22:55.312Z,27.35
2023-02-07T00:25:22.557Z,31.65
2023-02-07T00:27:49.411Z,31.20
2023-02-07T00:30:16.451Z,27.83
2023-02-07T00:32:43.186Z,24.20
2023-02-07T00:35:09.922Z,27.92
2023-02-07T00:37:36.808Z,25.30
2023-02-07T00:40:03.956Z,26.88
2023-02-07T00:42:30.631Z,28.33
2023-02-07T00:47:51.534Z,24.73
2023-02-07T00:50:18.300Z,30.50
2023-02-07T00:52:44.950Z,30.55
2023-02-07T00:55:11.538Z,23.30
2023-02-07T00:57:38.207Z,28.45
2023-02-07T01:00:05.319Z,28.35
2023-02-07T01:02:32.011Z,33.03
2023-02-07T01:05:00.314Z,31.33
2023-02-07T01:07:26.972Z,38.35
2023-02-07T01:09:53.657Z,28.85
2023-02-07T01:12:20.313Z,29.17
2023-02-07T01:14:46.982Z,24.95
2023-02-07T01:17:13.597Z,24.70
2023-02-07T01:19:40.236Z,34.13
2023-02-07T01:25:57.788Z,25.27
2023-02-07T01:28:24.440Z,29.85
2023-02-07T01:30:51.143Z,21.95
2023-02-07T01:33:17.864Z,26.73
2023-02-07T01:35:47.112Z,22.10
2023-02-07T01:38:13.973Z,27.08
2023-02-07T01:40:40.676Z,30.90
2023-02-07T01:43:07.528Z,31.90
2023-02-07T01:45:38.621Z,24.33
2023-02-07T01:48:12.937Z,30.67
2023-02-07T01:50:43.498Z,31.13
2023-02-07T01:53:14.414Z,23.38
2023-02-07T01:55:43.060Z,26.52
2023-02-07T01:58:09.839Z,23.80
2023-02-07T02:00:37.376Z,25.98
2023-02-07T02:03:05.068Z,22.75
2023-02-07T02:05:33.795Z,29.38
2023-02-07T02:08:00.435Z,25.05
2023-02-07T02:13:41.870Z,28.52
2023-02-07T02:16:20.892Z,24.45
2023-02-07T02:19:25.087Z,20.55
2023-02-07T02:22:39.290Z,24.98
2023-02-07T02:25:25.189Z,29.80
2023-02-07T02:28:10.177Z,27.70
2023-02-07T02:30:49.117Z,24.17
2023-02-07T02:33:44.159Z,26.27
2023-02-07T02:36:49.277Z,26.40
2023-02-07T02:39:23.343Z,22.48
2023-02-07T02:42:44.332Z,21.25
2023-02-07T02:45:13.232Z,23.33
2023-02-07T02:47:44.117Z,20.52
2023-02-07T02:50:19.784Z,33.58
2023-02-07T02:52:50.950Z,19.23
2023-02-07T02:55:27.993Z,23.52
2023-02-07T02:58:42.446Z,24.58
2023-02-07T03:01:29.171Z,23.77
2023-02-07T03:04:04.482Z,23.00
2023-02-07T03:06:31.076Z,22.05
2023-02-07T03:09:06.220Z,22.77
2023-02-07T03:11:42.018Z,22.98
2023-02-07T03:17:34.740Z,21.15
2023-02-07T03:20:07.028Z,26.50
2023-02-07T03:22:35.037Z,18.42
2023-02-07T03:25:03.278Z,24.63
2023-02-07T03:27:33.358Z,22.67
2023-02-07T03:30:05.120Z,20.38
2023-02-07T03:32:37.086Z,24.85
2023-02-07T03:35:09.510Z,24.85
2023-02-07T03:37:41.648Z,24.02
2023-02-07T03:40:10.156Z,24.33
2023-02-07T03:43:15.142Z,24.60
2023-02-07T03:45:42.195Z,20.48
2023-02-07T03:48:09.355Z,20.83
2023-02-07T03:50:36.032Z,22.10
2023-02-07T03:53:02.742Z,23.25
2023-02-07T03:55:29.506Z,21.92
2023-02-07T03:57:56.186Z,22.58
2023-02-07T04:00:22.926Z,22.05
2023-02-07T04:02:49.720Z,23.85
2023-02-07T04:05:16.704Z,26.50
2023-02-07T04:07:43.356Z,21.58
2023-02-07T04:10:11.095Z,26.67
2023-02-07T04:12:37.968Z,30.50
2023-02-07T04:17:45.335Z,25.80
2023-02-07T04:20:12.814Z,20.98
2023-02-07T04:22:39.525Z,23.90
2023-02-07T04:25:06.696Z,25.45
2023-02-07T04:27:33.412Z,26.33
2023-02-07T04:30:00.168Z,19.25
2023-02-07T04:32:26.859Z,23.13
2023-02-07T04:37:46.557Z,19.50
2023-02-07T04:40:13.170Z,30.40
2023-02-07T04:42:39.779Z,22.48
2023-02-07T04:45:06.955Z,36.15
2023-02-07T04:48:27.351Z,24.02
2023-02-07T04:51:57.234Z,26.43
2023-02-07T04:57:02.083Z,20.57
2023-02-07T04:59:28.862Z,21.93
2023-02-07T05:01:55.592Z,25.17
2023-02-07T05:04:22.302Z,28.37
2023-02-07T05:06:49.121Z,21.83
2023-02-07T05:09:15.839Z,20.80
2023-02-07T05:11:42.484Z,24.65
2023-02-07T05:14:09.255Z,19.85
2023-02-07T05:16:36.023Z,27.40
2023-02-07T05:19:02.893Z,21.48
2023-02-07T05:21:29.568Z,29.30
2023-02-07T05:23:56.222Z,25.77
2023-02-07T05:26:22.919Z,25.60
2023-02-07T05:28:49.543Z,21.40
2023-02-07T05:31:16.338Z,23.33
2023-02-07T05:33:43.031Z,20.83
2023-02-07T05:36:09.998Z,25.83
2023-02-07T05:38:36.780Z,28.20
2023-02-07T05:41:03.497Z,20.75
2023-02-07T05:43:30.167Z,29.33
2023-02-07T05:45:56.864Z,22.88
2023-02-07T05:48:23.625Z,23.40
2023-02-07T05:50:50.272Z,27.13
2023-02-07T05:53:16.955Z,21.13
2023-02-07T05:55:43.554Z,19.67
2023-02-07T05:58:10.376Z,16.60
2023-02-07T06:00:37.028Z,22.23
2023-02-07T06:03:03.995Z,18.80
2023-02-07T06:05:32.056Z,17.93
2023-02-07T06:07:59.726Z,30.87
2023-02-07T06:10:26.377Z,21.33
2023-02-07T06:12:53.164Z,22.27
2023-02-07T06:15:19.851Z,22.90
2023-02-07T06:17:47.559Z,20.50
2023-02-07T06:20:14.265Z,23.47
2023-02-07T06:22:40.954Z,23.17
2023-02-07T06:27:50.420Z,24.10
2023-02-07T06:30:17.149Z,22.40
2023-02-07T06:32:43.970Z,19.13
2023-02-07T06:35:10.600Z,24.03
2023-02-07T06:37:37.440Z,27.47
2023-02-07T06:40:04.884Z,28.33
2023-02-07T06:42:31.723Z,32.23
2023-02-07T06:44:58.481Z,33.10
2023-02-07T06:47:25.188Z,25.13
2023-02-07T06:49:51.857Z,26.07
2023-02-07T06:52:18.604Z,26.83
2023-02-07T06:54:45.242Z,22.53
2023-02-07T06:57:11.884Z,21.67
2023-02-07T06:59:38.571Z,32.97
2023-02-07T07:02:05.381Z,19.55
2023-02-07T07:04:32.092Z,23.52
2023-02-07T07:06:58.746Z,20.17
2023-02-07T07:09:25.461Z,19.88
2023-02-07T07:11:52.093Z,28.33
2023-02-07T07:16:35.804Z,21.98
2023-02-07T07:21:40.406Z,21.60
2023-02-07T07:24:07.245Z,18.60
2023-02-07T07:26:48.503Z,19.50
2023-02-07T07:29:17.011Z,24.48
2023-02-07T07:31:43.876Z,22.02
2023-02-07T07:34:10.554Z,23.98
2023-02-07T07:36:37.198Z,20.38
2023-02-07T07:39:04.251Z,20.13
2023-02-07T07:41:31.055Z,20.92
2023-02-07T07:43:57.746Z,21.52
2023-02-07T07:46:24.402Z,21.25
2023-02-07T07:48:51.328Z,21.95
2023-02-07T07:51:17.953Z,21.92
2023-02-07T07:53:44.567Z,20.90
2023-02-07T07:56:11.192Z,16.88
2023-02-07T08:01:17.284Z,14.20
2023-02-07T08:03:43.955Z,16.52
2023-02-07T08:06:10.907Z,25.70
2023-02-07T08:08:37.671Z,14.27
2023-02-07T08:11:06.973Z,21.60
2023-02-07T08:13:33.627Z,13.02
2023-02-07T08:18:42.677Z,14.80
2023-02-07T08:21:10.659Z,21.40
2023-02-07T08:23:37.777Z,12.38
2023-02-07T08:26:05.096Z,15.70
2023-02-07T08:28:32.085Z,13.50
2023-02-07T08:31:03.637Z,15.52
2023-02-07T08:33:30.552Z,9.93
2023-02-07T08:35:57.363Z,12.73
2023-02-07T08:38:24.387Z,11.65
2023-02-07T08:40:51.049Z,10.02
2023-02-07T08:43:17.858Z,8.27
2023-02-07T08:45:48.472Z,10.27
2023-02-07T08:48:16.019Z,11.20
2023-02-07T08:50:42.670Z,8.00
2023-02-07T08:53:10.200Z,8.73
2023-02-07T08:55:39.920Z,5.93
2023-02-07T08:58:06.690Z,13.68
2023-02-07T09:00:35.505Z,11.20
2023-02-07T09:03:03.997Z,8.98
2023-02-07T09:08:14.155Z,5.47
2023-02-07T09:10:41.279Z,6.53
2023-02-07T09:13:08.127Z,8.95
2023-02-07T09:15:34.744Z,16.10
2023-02-07T09:19:55.650Z,6.88
2023-02-07T09:23:46.548Z,5.18
2023-02-07T09:26:18.560Z,13.15
2023-02-07T09:28:45.342Z,5.40
2023-02-07T09:31:13.881Z,10.07
2023-02-07T09:33:41.366Z,12.32
2023-02-07T09:36:20.384Z,7.75
2023-02-07T09:38:47.229Z,7.82
2023-02-07T09:41:36.950Z,9.48
2023-02-07T09:44:12.611Z,5.35
2023-02-07T09:47:02.592Z,5.70
2023-02-07T09:49:39.180Z,9.00
2023-02-07T09:52:12.434Z,9.65
2023-02-07T09:54:42.447Z,10.38
2023-02-07T09:57:25.719Z,7.20
2023-02-07T09:59:54.473Z,8.88
2023-02-07T10:02:38.622Z,11.85
2023-02-07T10:05:16.929Z,10.10
2023-02-07T10:07:46.142Z,9.88
2023-02-07T10:10:18.220Z,10.02
2023-02-07T10:13:08.612Z,5.30
2023-02-07T10:15:36.203Z,11.13
2023-02-07T10:18:29.964Z,4.75
2023-02-07T10:21:13.604Z,7.75
2023-02-07T10:24:22.207Z,7.85
2023-02-07T10:26:54.791Z,10.57
2023-02-07T10:29:52.628Z,8.25
2023-02-07T10:32:24.327Z,4.85
2023-02-07T10:34:55.421Z,8.88
2023-02-07T10:37:27.261Z,5.80
2023-02-07T10:40:04.679Z,8.65
2023-02-07T10:42:36.329Z,6.18
2023-02-07T10:45:03.965Z,13.80
2023-02-07T10:47:36.629Z,9.52
2023-02-07T10:50:12.049Z,10.07
2023-02-07T10:52:50.080Z,7.93
2023-02-07T10:55:19.717Z,4.57
2023-02-07T10:58:02.789Z,5.45
2023-02-07T11:00:34.470Z,10.18
2023-02-07T11:03:20.711Z,5.10
2023-02-07T11:06:08.091Z,6.22
2023-02-07T11:11:29.698Z,5.72
2023-02-07T11:14:03.852Z,5.05
2023-02-07T11:16:31.301Z,4.85
2023-02-07T11:18:59.603Z,7.32
2023-02-07T11:21:33.865Z,6.55
2023-02-07T11:24:23.761Z,5.18
2023-02-07T11:27:00.094Z,5.18
2023-02-07T11:29:27.125Z,4.30
2023-02-07T11:31:56.825Z,5.28
2023-02-07T11:34:35.730Z,6.78
2023-02-07T11:37:19.945Z,4.85
2023-02-07T11:39:48.079Z,5.07
2023-02-07T11:42:22.809Z,4.00
2023-02-07T11:47:25.659Z,4.45
2023-02-07T11:49:58.289Z,3.70
2023-02-07T11:55:09.012Z,6.40
2023-02-07T11:57:35.823Z,6.68
2023-02-07T12:01:25.136Z,4.10
2023-02-07T12:04:01.092Z,4.82
2023-02-07T12:06:44.862Z,5.18
2023-02-07T12:09:24.704Z,4.07
2023-02-07T12:11:56.588Z,3.97
2023-02-07T12:14:33.666Z,5.85
2023-02-07T12:17:02.350Z,11.00
2023-02-07T12:19:34.119Z,4.65
2023-02-07T12:22:08.443Z,5.35
2023-02-07T12:27:31.947Z,5.07
2023-02-07T12:32:46.740Z,3.10
2023-02-07T12:35:21.898Z,3.72
2023-02-07T12:38:01.691Z,5.43
2023-02-07T12:40:38.364Z,10.02
2023-02-07T12:43:37.983Z,6.78
2023-02-07T12:46:16.624Z,4.93
2023-02-07T12:49:06.562Z,3.47
2023-02-07T12:52:09.929Z,5.60
2023-02-07T12:54:57.146Z,3.53
2023-02-07T12:57:42.627Z,7.97
2023-02-07T13:00:12.387Z,4.40
2023-02-07T13:03:37.589Z,4.38
2023-02-07T13:06:04.190Z,4.75
2023-02-07T13:08:34.167Z,4.78
2023-02-07T13:11:18.568Z,5.43
2023-02-07T13:14:15.704Z,4.60
2023-02-07T13:20:55.787Z,5.53
2023-02-07T13:23:28.016Z,14.30
2023-02-07T13:26:10.072Z,4.38
2023-02-07T13:28:45.304Z,4.13
2023-02-07T13:31:17.964Z,9.25
2023-02-07T13:33:45.101Z,5.68
2023-02-07T13:36:44.321Z,5.72
2023-02-07T13:39:54.006Z,6.78
2023-02-07T13:42:26.612Z,5.15
2023-02-07T13:44:59.227Z,4.57
2023-02-07T13:47:40.938Z,5.40
2023-02-07T13:50:32.624Z,4.78
2023-02-07T13:53:22.119Z,6.50
2023-02-07T13:55:49.648Z,5.20
2023-02-07T13:58:52.913Z,4.30
2023-02-07T14:01:29.565Z,4.70
2023-02-07T14:04:06.617Z,7.05
2023-02-07T14:06:53.415Z,12.45
2023-02-07T14:09:39.948Z,10.07
2023-02-07T14:12:21.960Z,13.90
2023-02-07T14:15:01.795Z,7.57
2023-02-07T14:17:29.412Z,12.25
2023-02-07T14:19:57.982Z,7.10
2023-02-07T14:22:50.960Z,7.20
2023-02-07T14:25:37.987Z,9.15
2023-02-07T14:28:04.784Z,12.05
2023-02-07T14:30:38.715Z,10.93
2023-02-07T14:33:14.154Z,6.38
2023-02-07T14:36:04.157Z,9.30
2023-02-07T14:38:40.898Z,7.10
2023-02-07T14:41:17.655Z,12.35
2023-02-07T14:44:08.588Z,10.90
2023-02-07T14:46:42.662Z,9.50
2023-02-07T14:49:15.135Z,56.25
2023-02-07T14:51:49.948Z,123.90
2023-02-07T14:55:04.242Z,227.70
2023-02-07T14:57:37.803Z,148.23
2023-02-07T15:00:07.489Z,98.15
2023-02-07T15:02:51.013Z,72.28
2023-02-07T15:05:20.493Z,15.45
2023-02-07T15:07:48.084Z,10.88
2023-02-07T15:10:42.319Z,18.25
2023-02-07T15:13:37.201Z,16.97
2023-02-07T15:17:30.991Z,14.90
2023-02-07T15:20:03.107Z,18.08
2023-02-07T15:22:29.890Z,13.50
2023-02-07T15:24:58.694Z,12.00
2023-02-07T15:27:28.464Z,10.02
2023-02-07T15:30:03.349Z,17.55
2023-02-07T15:32:41.553Z,12.60
2023-02-07T15:35:18.703Z,19.30
2023-02-07T15:37:47.428Z,16.23
2023-02-07T15:40:16.281Z,15.07
2023-02-07T15:42:58.839Z,17.27
2023-02-07T15:45:28.295Z,14.52
2023-02-07T15:47:59.027Z,29.20
2023-02-07T15:53:09.335Z,26.23
2023-02-07T15:55:43.181Z,19.25
2023-02-07T15:58:18.868Z,18.33
2023-02-07T16:00:45.550Z,19.73
2023-02-07T16:03:21.312Z,23.05
2023-02-07T16:05:48.957Z,18.63
2023-02-07T16:11:32.295Z,17.20
2023-02-07T16:14:01.724Z,18.88
2023-02-07T16:16:34.455Z,16.70
2023-02-07T16:19:14.742Z,15.32
2023-02-07T16:21:46.631Z,14.68
2023-02-07T16:27:00.226Z,16.35
2023-02-07T16:29:27.210Z,18.25
2023-02-07T16:31:55.310Z,15.85
2023-02-07T16:34:22.883Z,20.08
2023-02-07T16:36:52.014Z,13.70
2023-02-07T16:39:18.845Z,16.20
2023-02-07T16:41:48.946Z,17.50
2023-02-07T16:44:20.169Z,17.45
2023-02-07T16:46:47.823Z,18.15
2023-02-07T16:49:16.668Z,17.52
2023-02-07T16:51:44.397Z,19.55
2023-02-07T16:54:11.342Z,15.93
2023-02-07T16:56:38.444Z,17.70
2023-02-07T16:59:05.711Z,13.82
2023-02-07T17:01:33.426Z,17.00
2023-02-07T17:04:00.378Z,14.23
2023-02-07T17:06:27.438Z,12.27
2023-02-07T17:08:54.421Z,18.88
2023-02-07T17:11:26.291Z,15.65
2023-02-07T17:13:57.555Z,13.35
2023-02-07T17:16:25.831Z,12.93
2023-02-07T17:18:52.952Z,19.70
2023-02-07T17:21:22.124Z,16.02
2023-02-07T17:26:34.045Z,17.00
2023-02-07T17:31:26.368Z,14.82
2023-02-07T17:33:53.404Z,20.77
2023-02-07T17:36:20.327Z,20.60
2023-02-07T17:38:46.964Z,19.05
2023-02-07T17:41:15.396Z,19.65
2023-02-07T17:43:42.570Z,17.83
2023-02-07T17:46:17.580Z,21.13
2023-02-07T17:48:46.757Z,18.42
2023-02-07T17:51:15.213Z,16.33
2023-02-07T17:53:42.055Z,18.98
2023-02-07T17:56:17.640Z,15.18
2023-02-07T17:58:44.259Z,22.13
2023-02-07T18:01:11.002Z,20.58
2023-02-07T18:03:37.675Z,22.52
2023-02-07T18:08:55.695Z,22.98
2023-02-07T18:11:23.124Z,22.23
2023-02-07T18:13:50.251Z,18.75
2023-02-07T18:16:22.165Z,18.73
2023-02-07T18:18:53.219Z,19.50
2023-02-07T18:21:20.371Z,19.60
2023-02-07T18:26:23.331Z,18.25
2023-02-07T18:31:09.511Z,22.80
2023-02-07T18:33:36.265Z,18.73
2023-02-07T18:36:02.925Z,18.60
2023-02-07T18:38:29.739Z,16.95
2023-02-07T18:40:56.346Z,25.48
2023-02-07T18:43:22.946Z,19.15
2023-02-07T18:45:49.605Z,21.55
2023-02-07T18:48:16.266Z,19.60
2023-02-07T18:50:45.996Z,18.35
2023-02-07T18:53:13.439Z,22.15
2023-02-07T18:55:40.021Z,15.20
2023-02-07T18:58:06.657Z,23.52
2023-02-07T19:00:33.355Z,21.15
2023-02-07T19:02:59.945Z,17.67
2023-02-07T19:05:26.721Z,20.58
2023-02-07T19:07:55.637Z,26.23
2023-02-07T19:10:22.434Z,22.45
2023-02-07T19:12:49.043Z,21.00
2023-02-07T19:15:15.737Z,21.38
2023-02-07T19:20:21.718Z,18.30
2023-02-07T19:22:52.768Z,16.88
2023-02-07T19:25:19.478Z,18.98
2023-02-07T19:27:46.092Z,17.88
2023-02-07T19:30:13.196Z,19.42
2023-02-07T19:32:40.737Z,18.08
2023-02-07T19:35:07.556Z,19.80
2023-02-07T19:37:34.230Z,21.52
2023-02-07T19:40:00.922Z,23.90
2023-02-07T19:42:28.107Z,32.92
2023-02-07T19:44:54.704Z,50.95
2023-02-07T19:47:21.390Z,54.45
2023-02-07T19:49:51.804Z,37.53
2023-02-07T19:52:20.153Z,25.92
2023-02-07T19:54:46.813Z,24.15
2023-02-07T19:57:13.415Z,21.90
2023-02-07T19:59:40.064Z,20.60
2023-02-07T20:02:07.548Z,24.67
2023-02-07T20:04:34.156Z,20.20
2023-02-07T20:07:01.049Z,15.73
2023-02-07T20:09:27.676Z,20.35
2023-02-07T20:11:55.086Z,19.73
2023-02-07T20:14:21.692Z,22.05
2023-02-07T20:16:49.389Z,19.38
2023-02-07T20:19:16.272Z,23.35
2023-02-07T20:24:08.573Z,26.75
2023-02-07T20:29:18.723Z,22.73
2023-02-07T20:31:46.977Z,25.30
2023-02-07T20:34:14.200Z,24.05
2023-02-07T20:36:42.145Z,27.88
2023-02-07T20:39:13.049Z,19.65
2023-02-07T20:41:41.694Z,20.10
2023-02-07T20:47:00.642Z,18.05
2023-02-07T20:49:29.925Z,20.70
2023-02-07T20:51:58.779Z,25.58
2023-02-07T20:54:27.492Z,24.67
2023-02-07T20:56:55.720Z,18.50
2023-02-07T20:59:33.049Z,19.77
2023-02-07T21:01:59.916Z,22.35
2023-02-07T21:04:28.676Z,20.42
2023-02-07T21:06:55.445Z,23.65
2023-02-07T21:09:22.454Z,21.75
2023-02-07T21:11:51.651Z,22.05
2023-02-07T21:14:27.230Z,24.52
2023-02-07T21:16:55.830Z,20.73
2023-02-07T21:19:23.599Z,22.27
2023-02-07T21:21:51.060Z,23.63
2023-02-07T21:24:18.956Z,23.67
2023-02-07T21:26:48.549Z,25.02
2023-02-07T21:29:15.713Z,20.17
2023-02-07T21:31:42.476Z,34.03
2023-02-07T21:34:09.869Z,35.95
2023-02-07T21:36:40.014Z,26.75
2023-02-07T21:39:10.608Z,29.40
2023-02-07T21:44:08.718Z,23.40
2023-02-07T21:50:38.378Z,23.13
2023-02-07T21:55:43.887Z,26.27
2023-02-07T21:58:10.539Z,27.38
2023-02-07T22:00:37.129Z,22.77
2023-02-07T22:03:03.840Z,30.33
2023-02-07T22:05:30.466Z,27.63
2023-02-07T22:07:57.090Z,32.10
2023-02-07T22:10:23.729Z,25.35
2023-02-07T22:12:50.404Z,19.23
2023-02-07T22:15:17.081Z,18.98
2023-02-07T22:17:43.672Z,27.00
2023-02-07T22:20:11.125Z,29.05
2023-02-07T22:22:37.744Z,26.27
2023-02-07T22:25:04.503Z,24.92
2023-02-07T22:27:31.121Z,25.65
2023-02-07T22:31:28.412Z,33.35
2023-02-07T22:33:58.388Z,27.73
2023-02-07T22:36:27.446Z,29.30
2023-02-07T22:38:54.900Z,22.77
2023-02-07T22:41:23.061Z,26.17
2023-02-07T22:43:50.392Z,31.83
2023-02-07T22:46:19.899Z,25.25
2023-02-07T22:48:46.620Z,30.38
2023-02-07T22:54:29.641Z,25.98
2023-02-07T22:56:56.265Z,23.05
2023-02-07T22:59:22.841Z,26.10
2023-02-07T23:01:49.497Z,26.73
2023-02-07T23:04:17.838Z,22.80
2023-02-07T23:09:24.520Z,23.35
2023-02-07T23:11:51.168Z,21.65
2023-02-07T23:14:17.931Z,25.00
2023-02-07T23:16:44.679Z,21.33
2023-02-07T23:20:19.282Z,25.15
2023-02-07T23:25:20.887Z,25.88
2023-02-07T23:27:47.666Z,21.40
2023-02-07T23:30:15.218Z,23.52
2023-02-07T23:32:41.991Z,21.80
2023-02-07T23:35:09.004Z,21.45
2023-02-07T23:37:35.674Z,21.20
2023-02-07T23:40:02.378Z,25.02
2023-02-07T23:42:29.010Z,25.02
2023-02-07T23:44:55.655Z,23.10
2023-02-07T23:47:22.243Z,24.40
2023-02-07T23:49:48.889Z,23.80
2023-02-07T23:52:15.536Z,23.38
2023-02-07T23:54:42.207Z,21.90
2023-02-07T23:59:48.711Z,23.10
